Time;durP1;ratioP1;P1;durP2;ratioP2;P2;SDS_P1;SDS_P2;PMS_P1;PMS_P2;Temp;Humidity;BMP_temperature;BMP_pressure;BME280_temperature;BME280_humidity;BME280_pressure;Samples;Min_cycle;Max_cycle;Signal;HPM_P1;HPM_P2
2022/08/24 00:00:29;;;;;;;16.58;11.40;;;22.30;99.90;;;;;;5069775;28;20685;-74
2022/08/24 00:02:56;;;;;;;15.85;8.68;;;22.30;99.90;;;;;;5071815;28;20547;-73
2022/08/24 00:05:23;;;;;;;10.00;4.80;;;22.30;99.90;;;;;;5070809;28;20209;-73
2022/08/24 00:07:50;;;;;;;12.82;5.55;;;22.30;99.90;;;;;;5072028;28;20697;-73
2022/08/24 00:10:19;;;;;;;8.73;5.20;;;22.30;99.90;;;;;;5068779;28;20224;-74
2022/08/24 00:12:46;;;;;;;12.48;8.60;;;22.20;99.90;;;;;;5069566;28;20228;-73
2022/08/24 00:15:15;;;;;;;14.43;8.48;;;22.20;99.90;;;;;;5072146;28;20410;-74
2022/08/24 00:17:42;;;;;;;13.77;7.65;;;22.30;99.90;;;;;;5067500;28;20891;-74
2022/08/24 00:20:11;;;;;;;14.20;6.68;;;22.30;99.90;;;;;;5069935;28;20594;-71
2022/08/24 00:22:39;;;;;;;16.15;10.07;;;22.20;99.90;;;;;;5069932;28;20283;-71
2022/08/24 00:25:09;;;;;;;9.10;6.35;;;22.20;99.90;;;;;;5071428;28;20588;-73
2022/08/24 00:27:36;;;;;;;11.73;7.78;;;22.20;99.90;;;;;;5071245;28;20618;-72
2022/08/24 00:30:04;;;;;;;10.23;7.35;;;22.20;99.90;;;;;;5070472;28;20225;-72
2022/08/24 00:32:32;;;;;;;15.23;7.28;;;22.10;99.90;;;;;;5070912;28;20212;-71
2022/08/24 00:34:59;;;;;;;8.32;5.40;;;22.10;99.90;;;;;;5071653;28;20575;-72
2022/08/24 00:37:27;;;;;;;5.13;4.63;;;22.10;99.90;;;;;;5070443;28;20573;-73
2022/08/24 00:39:54;;;;;;;11.10;5.90;;;22.10;99.90;;;;;;5069101;28;20202;-72
2022/08/24 00:42:21;;;;;;;10.57;6.40;;;22.10;99.90;;;;;;5070822;28;20213;-72
2022/08/24 00:44:48;;;;;;;11.30;6.57;;;22.10;99.90;;;;;;5070997;28;20672;-73
2022/08/24 00:47:19;;;;;;;14.00;6.20;;;22.10;99.90;;;;;;5069756;28;20201;-72
2022/08/24 00:49:54;;;;;;;9.35;5.68;;;22.10;99.90;;;;;;5070063;28;20328;-73
2022/08/24 00:52:24;;;;;;;14.52;5.80;;;22.10;99.90;;;;;;5059534;28;20196;-73
2022/08/24 00:54:55;;;;;;;12.02;5.03;;;22.00;99.90;;;;;;5064099;28;20259;-72
2022/08/24 00:57:26;;;;;;;6.65;4.13;;;22.10;99.90;;;;;;5070921;28;20213;-72
2022/08/24 00:59:58;;;;;;;9.68;5.00;;;22.00;99.90;;;;;;5067938;28;20654;-72
2022/08/24 01:02:29;;;;;;;8.63;5.30;;;22.00;99.90;;;;;;5056462;28;20197;-72
2022/08/24 01:05:00;;;;;;;9.75;7.05;;;22.00;99.90;;;;;;5070589;28;20208;-72
2022/08/24 01:07:29;;;;;;;9.25;5.15;;;22.00;99.90;;;;;;5070112;28;20251;-72
2022/08/24 01:10:00;;;;;;;7.68;5.30;;;22.00;99.90;;;;;;5068146;28;20235;-73
2022/08/24 01:12:29;;;;;;;11.45;6.55;;;22.00;99.90;;;;;;5068655;28;20680;-72
2022/08/24 01:14:57;;;;;;;14.00;6.93;;;22.00;99.90;;;;;;5071184;28;20212;-73
2022/08/24 01:20:13;;;;;;;10.05;6.25;;;22.00;99.90;;;;;;5060535;28;20250;-73
2022/08/24 01:22:53;;;;;;;11.55;6.32;;;22.00;99.90;;;;;;5069675;28;20228;-72
2022/08/24 01:25:23;;;;;;;8.00;5.50;;;21.90;99.90;;;;;;5071192;28;20204;-72
2022/08/24 01:27:53;;;;;;;12.07;5.75;;;22.00;99.90;;;;;;5064012;28;20258;-75
2022/08/24 01:30:21;;;;;;;10.95;6.38;;;21.90;99.90;;;;;;5061120;28;20215;-74
2022/08/24 01:32:55;;;;;;;11.68;5.97;;;21.90;99.90;;;;;;5068591;28;20208;-74
2022/08/24 01:35:22;;;;;;;10.30;6.00;;;21.90;99.90;;;;;;5069220;28;20240;-73
2022/08/24 01:37:53;;;;;;;9.75;5.90;;;21.90;99.90;;;;;;5068627;28;20304;-74
2022/08/24 01:40:25;;;;;;;8.18;5.60;;;21.90;99.90;;;;;;5067568;28;20214;-73
2022/08/24 01:42:53;;;;;;;11.13;6.22;;;21.90;99.90;;;;;;5070382;28;20512;-73
2022/08/24 01:45:20;;;;;;;13.93;7.53;;;21.80;99.90;;;;;;5067178;28;20573;-73
2022/08/24 01:47:47;;;;;;;9.77;5.60;;;21.80;99.90;;;;;;5070400;28;20213;-72
2022/08/24 01:50:14;;;;;;;6.78;5.38;;;21.80;99.90;;;;;;5066274;28;20701;-72
2022/08/24 01:52:43;;;;;;;9.43;6.30;;;21.80;99.90;;;;;;5070507;28;20209;-72
2022/08/24 01:55:12;;;;;;;9.93;5.13;;;21.80;99.90;;;;;;5069841;28;20276;-72
2022/08/24 01:57:42;;;;;;;8.30;5.57;;;21.80;99.90;;;;;;5069146;28;20212;-72
2022/08/24 02:00:13;;;;;;;8.90;5.45;;;21.80;99.90;;;;;;5066272;28;20232;-71
2022/08/24 02:02:41;;;;;;;7.15;5.43;;;21.80;99.90;;;;;;5070000;28;20567;-72
2022/08/24 02:05:08;;;;;;;6.40;5.43;;;21.80;99.90;;;;;;5068319;28;20250;-72
2022/08/24 02:07:35;;;;;;;11.10;6.10;;;21.80;99.90;;;;;;5070169;28;20303;-73
2022/08/24 02:10:02;;;;;;;7.22;5.25;;;21.80;99.90;;;;;;5069215;28;20221;-73
2022/08/24 02:12:29;;;;;;;8.93;5.78;;;21.80;99.90;;;;;;5070320;28;20236;-73
2022/08/24 02:14:57;;;;;;;7.18;4.85;;;21.70;99.90;;;;;;5070733;28;20642;-71
2022/08/24 02:17:24;;;;;;;11.73;5.05;;;21.70;99.90;;;;;;5063509;28;20209;-72
2022/08/24 02:19:51;;;;;;;6.40;4.07;;;21.70;99.90;;;;;;5067005;28;20583;-72
2022/08/24 02:22:17;;;;;;;6.30;4.40;;;21.70;99.90;;;;;;5067968;28;20739;-72
2022/08/24 02:24:44;;;;;;;6.90;4.75;;;21.70;99.90;;;;;;5069819;28;20217;-73
2022/08/24 02:27:12;;;;;;;13.02;5.65;;;21.70;99.90;;;;;;5069317;28;20206;-71
2022/08/24 02:29:38;;;;;;;12.40;5.72;;;21.60;99.90;;;;;;5068208;28;20264;-72
2022/08/24 02:32:07;;;;;;;9.88;6.15;;;21.60;99.90;;;;;;5073154;28;20229;-71
2022/08/24 02:34:33;;;;;;;7.55;4.70;;;21.60;99.90;;;;;;5071856;28;20214;-71
2022/08/24 02:37:00;;;;;;;9.93;7.40;;;21.70;99.90;;;;;;5072410;28;20205;-69
2022/08/24 02:39:28;;;;;;;6.90;5.32;;;21.60;99.90;;;;;;5071684;28;20409;-69
2022/08/24 02:41:54;;;;;;;8.38;4.85;;;21.70;99.90;;;;;;5072604;28;20209;-72
2022/08/24 02:44:21;;;;;;;8.32;5.90;;;21.70;99.90;;;;;;5073740;28;20607;-72
2022/08/24 02:46:48;;;;;;;13.95;6.72;;;21.60;99.90;;;;;;5073543;28;20209;-72
2022/08/24 02:49:17;;;;;;;12.15;7.80;;;21.60;99.90;;;;;;5070612;28;20217;-72
2022/08/24 02:51:46;;;;;;;8.73;5.70;;;21.60;99.90;;;;;;5069720;28;20229;-72
2022/08/24 02:54:16;;;;;;;13.00;7.07;;;21.70;99.90;;;;;;5073023;28;20209;-72
2022/08/24 02:56:43;;;;;;;8.95;4.90;;;21.70;99.90;;;;;;5072202;28;20634;-72
2022/08/24 02:59:10;;;;;;;12.57;5.00;;;21.60;99.90;;;;;;5071250;28;20201;-72
2022/08/24 03:01:37;;;;;;;9.48;5.28;;;21.60;99.90;;;;;;5072681;28;20212;-72
2022/08/24 03:04:04;;;;;;;8.27;4.97;;;21.70;99.90;;;;;;5072519;28;20217;-72
2022/08/24 03:06:32;;;;;;;13.52;6.20;;;21.60;99.90;;;;;;5071000;28;20656;-72
2022/08/24 03:08:59;;;;;;;7.25;5.78;;;21.60;99.90;;;;;;5071040;28;20225;-72
2022/08/24 03:11:26;;;;;;;10.88;6.05;;;21.60;99.90;;;;;;5072163;28;20221;-73
2022/08/24 03:13:52;;;;;;;12.50;6.90;;;21.60;99.90;;;;;;5072820;28;20221;-72
2022/08/24 03:16:19;;;;;;;9.93;6.80;;;21.70;99.90;;;;;;5072324;28;20205;-72
2022/08/24 03:18:46;;;;;;;7.13;5.18;;;21.70;99.90;;;;;;5072679;28;20658;-71
2022/08/24 03:21:13;;;;;;;9.23;6.72;;;21.70;99.90;;;;;;5069387;28;20213;-72
2022/08/24 03:23:41;;;;;;;7.30;5.80;;;21.60;99.90;;;;;;5071475;28;20210;-73
2022/08/24 03:26:07;;;;;;;9.18;5.47;;;21.70;99.90;;;;;;5072532;28;20201;-72
2022/08/24 03:28:34;;;;;;;12.27;7.05;;;21.70;99.90;;;;;;5071824;28;20211;-72
2022/08/24 03:31:01;;;;;;;13.75;5.80;;;21.60;99.90;;;;;;5070883;28;20284;-72
2022/08/24 03:33:28;;;;;;;7.53;5.63;;;21.70;99.90;;;;;;5072245;28;20567;-74
2022/08/24 03:35:55;;;;;;;9.10;6.00;;;21.60;99.90;;;;;;5070142;28;20256;-73
2022/08/24 03:38:22;;;;;;;11.98;6.65;;;21.60;99.90;;;;;;5070397;28;20242;-73
2022/08/24 03:40:50;;;;;;;9.35;6.05;;;21.60;99.90;;;;;;5070767;28;20205;-74
2022/08/24 03:45:59;;;;;;;8.38;5.38;;;21.60;99.90;;;;;;5070680;28;20205;-72
2022/08/24 03:48:27;;;;;;;8.95;6.82;;;21.60;99.90;;;;;;5072582;28;20213;-71
2022/08/24 03:50:54;;;;;;;13.43;7.50;;;21.60;99.90;;;;;;5070274;28;20237;-72
2022/08/24 03:53:21;;;;;;;13.48;7.82;;;21.60;99.90;;;;;;5066532;28;20728;-71
2022/08/24 03:55:49;;;;;;;9.07;6.05;;;21.60;99.90;;;;;;5069999;28;20215;-72
2022/08/24 03:58:16;;;;;;;8.38;5.35;;;21.70;99.90;;;;;;5071610;28;20213;-73
2022/08/24 04:00:43;;;;;;;13.63;6.97;;;21.80;99.90;;;;;;5071171;28;20236;-72
2022/08/24 04:03:11;;;;;;;11.07;6.03;;;21.80;99.90;;;;;;5070934;28;20201;-71
2022/08/24 04:05:39;;;;;;;10.57;5.82;;;21.80;99.90;;;;;;5071319;28;20597;-72
2022/08/24 04:08:06;;;;;;;9.95;6.60;;;21.80;99.90;;;;;;5062576;28;20625;-72
2022/08/24 04:10:34;;;;;;;12.70;5.70;;;21.80;99.90;;;;;;5070552;28;20225;-73
2022/08/24 04:13:02;;;;;;;9.45;5.10;;;21.90;99.90;;;;;;5067630;28;20539;-72
2022/08/24 04:15:30;;;;;;;6.95;5.20;;;21.90;99.90;;;;;;5070361;28;20623;-72
2022/08/24 04:17:57;;;;;;;10.77;6.95;;;21.80;99.90;;;;;;5070093;28;20868;-72
2022/08/24 04:20:24;;;;;;;11.40;7.20;;;21.80;99.90;;;;;;5071343;28;20443;-72
2022/08/24 04:22:51;;;;;;;9.73;5.50;;;21.80;99.90;;;;;;5069645;28;20320;-72
2022/08/24 04:25:18;;;;;;;10.63;7.13;;;21.80;99.90;;;;;;5069926;28;20213;-71
2022/08/24 04:27:45;;;;;;;9.80;6.32;;;21.70;99.90;;;;;;5068881;28;20214;-71
2022/08/24 04:30:14;;;;;;;8.75;6.55;;;21.80;99.90;;;;;;5071345;28;20227;-72
2022/08/24 04:32:41;;;;;;;10.10;5.70;;;21.80;99.90;;;;;;5069405;28;20562;-73
2022/08/24 04:35:08;;;;;;;6.93;5.18;;;21.80;99.90;;;;;;5056905;28;20652;-72
2022/08/24 04:37:35;;;;;;;10.15;7.18;;;21.80;99.90;;;;;;5070598;28;20224;-74
2022/08/24 04:40:02;;;;;;;12.32;6.13;;;21.80;99.90;;;;;;5069489;28;20652;-72
2022/08/24 04:42:30;;;;;;;13.15;5.35;;;21.80;99.90;;;;;;5071336;28;20632;-72
2022/08/24 04:44:57;;;;;;;10.98;6.68;;;21.80;99.90;;;;;;5069531;28;20346;-73
2022/08/24 04:47:25;;;;;;;9.52;5.57;;;21.90;99.90;;;;;;5070466;28;20220;-72
2022/08/24 04:49:52;;;;;;;7.47;5.50;;;21.90;99.90;;;;;;5070037;28;20209;-73
2022/08/24 04:52:19;;;;;;;7.82;5.22;;;22.00;99.90;;;;;;5070593;28;20600;-72
2022/08/24 04:54:45;;;;;;;11.88;5.78;;;22.00;99.90;;;;;;5067593;28;20213;-72
2022/08/24 04:57:12;;;;;;;9.32;6.38;;;21.90;99.90;;;;;;5069421;28;20202;-70
2022/08/24 04:59:39;;;;;;;7.53;5.30;;;21.90;99.90;;;;;;5069614;28;20299;-70
2022/08/24 05:02:06;;;;;;;6.65;5.75;;;21.90;99.90;;;;;;5067679;28;20304;-70
2022/08/24 05:04:36;;;;;;;13.57;7.13;;;21.90;99.90;;;;;;5067090;28;20628;-70
2022/08/24 05:07:03;;;;;;;12.05;6.10;;;21.80;99.90;;;;;;5069876;28;20209;-72
2022/08/24 05:09:30;;;;;;;12.45;6.47;;;21.80;99.90;;;;;;5069763;28;20598;-72
2022/08/24 05:11:57;;;;;;;13.52;6.00;;;21.90;99.90;;;;;;5069455;28;20891;-70
2022/08/24 05:14:23;;;;;;;13.05;6.70;;;21.90;99.90;;;;;;5069319;28;20254;-71
2022/08/24 05:16:50;;;;;;;14.10;6.72;;;21.90;99.90;;;;;;5069728;28;20216;-70
2022/08/24 05:19:17;;;;;;;11.43;5.95;;;22.00;99.90;;;;;;5069767;28;20205;-70
2022/08/24 05:21:45;;;;;;;10.07;7.07;;;22.10;99.90;;;;;;5071923;28;20256;-71
2022/08/24 05:24:12;;;;;;;12.30;7.00;;;22.20;99.90;;;;;;5068721;28;20584;-72
2022/08/24 05:26:39;;;;;;;9.25;6.55;;;22.30;99.90;;;;;;5069382;28;20212;-71
2022/08/24 05:29:06;;;;;;;11.02;6.40;;;22.30;99.90;;;;;;5069429;28;20292;-71
2022/08/24 05:31:33;;;;;;;11.07;6.07;;;22.40;99.90;;;;;;5070263;28;20433;-72
2022/08/24 05:34:03;;;;;;;8.88;6.25;;;22.40;99.90;;;;;;5068177;28;20305;-72
2022/08/24 05:36:33;;;;;;;11.60;5.93;;;22.40;99.90;;;;;;5065874;28;20244;-67
2022/08/24 05:39:04;;;;;;;17.33;7.43;;;22.50;99.90;;;;;;5069142;28;20519;-68
2022/08/24 05:41:30;;;;;;;10.98;6.82;;;22.40;99.90;;;;;;5067541;28;20201;-67
2022/08/24 05:43:57;;;;;;;11.48;6.45;;;22.50;99.90;;;;;;5069026;28;20236;-68
2022/08/24 05:46:25;;;;;;;12.00;6.53;;;22.60;99.90;;;;;;5068131;28;20200;-67
2022/08/24 05:48:52;;;;;;;15.00;6.55;;;22.50;99.90;;;;;;5068903;28;20205;-67
2022/08/24 05:51:19;;;;;;;11.85;5.85;;;22.60;99.90;;;;;;5068268;28;20226;-67
2022/08/24 05:53:46;;;;;;;16.40;7.28;;;22.60;99.90;;;;;;5062606;28;20440;-67
2022/08/24 05:56:16;;;;;;;12.25;7.50;;;22.60;99.90;;;;;;5067401;28;20213;-66
2022/08/24 05:58:43;;;;;;;9.23;5.80;;;22.60;99.90;;;;;;5068276;28;20201;-66
2022/08/24 06:01:12;;;;;;;14.77;6.50;;;22.60;99.90;;;;;;5067322;28;20206;-67
2022/08/24 06:03:39;;;;;;;12.60;6.35;;;22.60;99.90;;;;;;5064061;28;20245;-68
2022/08/24 06:06:07;;;;;;;10.00;5.65;;;22.60;99.90;;;;;;5070828;28;20212;-68
2022/08/24 06:08:35;;;;;;;10.95;6.18;;;22.60;99.90;;;;;;5067123;28;20209;-67
2022/08/24 06:11:02;;;;;;;9.50;6.40;;;22.80;99.90;;;;;;5073616;28;20221;-67
2022/08/24 06:13:33;;;;;;;9.40;5.55;;;22.80;99.90;;;;;;5065947;28;20657;-75
2022/08/24 06:16:06;;;;;;;11.32;6.53;;;23.00;99.90;;;;;;5058687;28;20205;-72
2022/08/24 06:18:33;;;;;;;11.88;6.63;;;23.10;99.90;;;;;;5071340;28;20205;-71
2022/08/24 06:21:04;;;;;;;9.88;6.25;;;23.30;99.90;;;;;;5068016;28;20223;-72
2022/08/24 06:23:31;;;;;;;11.30;6.95;;;23.30;99.90;;;;;;5068440;28;20269;-71
2022/08/24 06:28:44;;;;;;;10.10;5.72;;;23.70;99.90;;;;;;5073667;28;20208;-70
2022/08/24 06:31:11;;;;;;;6.50;5.35;;;23.80;99.90;;;;;;5071140;28;20580;-69
2022/08/24 06:33:38;;;;;;;16.45;5.82;;;23.90;99.90;;;;;;5070070;28;20209;-70
2022/08/24 06:36:05;;;;;;;10.13;6.03;;;24.00;99.90;;;;;;5061700;28;20576;-70
2022/08/24 06:38:32;;;;;;;11.75;5.72;;;24.10;99.90;;;;;;5065843;28;20198;-70
2022/08/24 06:40:59;;;;;;;11.45;5.78;;;24.10;99.90;;;;;;5060065;28;20205;-66
2022/08/24 06:43:26;;;;;;;11.68;5.75;;;24.10;99.90;;;;;;5069488;28;20209;-68
2022/08/24 06:45:55;;;;;;;17.75;6.43;;;24.30;99.90;;;;;;5070336;28;20212;-70
2022/08/24 06:48:23;;;;;;;18.10;5.88;;;24.30;99.90;;;;;;5070967;28;20208;-68
2022/08/24 06:50:50;;;;;;;14.27;4.95;;;24.40;99.90;;;;;;5069037;28;20569;-71
2022/08/24 06:53:17;;;;;;;18.10;6.72;;;24.50;99.90;;;;;;5065826;28;20244;-67
2022/08/24 06:55:46;;;;;;;12.43;6.10;;;24.60;99.90;;;;;;5066583;28;20216;-69
2022/08/24 06:58:13;;;;;;;16.05;7.30;;;24.80;99.90;;;;;;5066080;28;20209;-68
2022/08/24 07:00:40;;;;;;;14.75;6.15;;;25.00;99.90;;;;;;5056425;28;20225;-69
2022/08/24 07:03:08;;;;;;;13.48;5.47;;;25.00;99.90;;;;;;5070093;28;20559;-67
2022/08/24 07:05:35;;;;;;;11.57;6.03;;;25.20;99.90;;;;;;5069632;28;20201;-67
2022/08/24 07:08:02;;;;;;;10.38;6.40;;;25.30;99.90;;;;;;5071906;28;20232;-68
2022/08/24 07:10:29;;;;;;;15.48;6.97;;;25.40;99.90;;;;;;5072485;28;20201;-68
2022/08/24 07:12:56;;;;;;;11.43;6.25;;;25.50;99.90;;;;;;5057626;28;20275;-68
2022/08/24 07:15:25;;;;;;;18.35;6.53;;;25.60;99.90;;;;;;5054846;28;20218;-66
2022/08/24 07:17:52;;;;;;;16.63;6.45;;;25.70;99.90;;;;;;5068521;28;20274;-68
2022/08/24 07:20:20;;;;;;;18.27;6.00;;;25.80;99.90;;;;;;5070471;28;20301;-69
2022/08/24 07:22:47;;;;;;;16.35;6.13;;;25.90;99.90;;;;;;5067339;28;20229;-67
2022/08/24 07:25:13;;;;;;;20.52;6.20;;;26.00;99.90;;;;;;5070112;28;20560;-67
2022/08/24 07:27:40;;;;;;;16.33;5.32;;;26.10;99.90;;;;;;5069179;28;20220;-68
2022/08/24 07:30:08;;;;;;;16.30;5.95;;;26.20;99.90;;;;;;5071026;28;20232;-70
2022/08/24 07:32:35;;;;;;;21.02;6.10;;;26.30;99.90;;;;;;5071594;28;20233;-68
2022/08/24 07:35:02;;;;;;;25.67;5.57;;;26.30;99.90;;;;;;5070526;28;20244;-68
2022/08/24 07:37:30;;;;;;;28.15;6.57;;;26.40;99.90;;;;;;5065723;28;20213;-67
2022/08/24 07:39:57;;;;;;;17.27;5.38;;;26.60;99.90;;;;;;5069406;28;20205;-66
2022/08/24 07:42:24;;;;;;;24.63;6.47;;;26.70;99.90;;;;;;5072117;28;20202;-66
2022/08/24 07:44:51;;;;;;;19.98;5.38;;;26.70;99.90;;;;;;5069064;28;20711;-69
2022/08/24 07:47:18;;;;;;;21.75;6.15;;;26.80;99.90;;;;;;5067850;28;20210;-67
2022/08/24 07:49:45;;;;;;;17.65;6.25;;;27.00;99.90;;;;;;5071040;28;20217;-67
2022/08/24 07:52:12;;;;;;;27.52;7.07;;;27.10;99.90;;;;;;5071423;28;20217;-66
2022/08/24 07:54:40;;;;;;;27.45;6.55;;;27.30;99.90;;;;;;5070435;28;20201;-65
2022/08/24 07:57:07;;;;;;;22.55;6.65;;;27.30;99.90;;;;;;5069968;28;20237;-66
2022/08/24 07:59:34;;;;;;;17.42;6.18;;;27.40;99.90;;;;;;5069392;28;20209;-66
2022/08/24 08:02:01;;;;;;;27.27;6.68;;;27.50;99.90;;;;;;5068354;28;20230;-67
2022/08/24 08:04:30;;;;;;;18.70;6.00;;;27.60;99.90;;;;;;5069787;28;20638;-68
2022/08/24 08:06:59;;;;;;;28.30;6.03;;;27.70;99.90;;;;;;5070131;28;20220;-66
2022/08/24 08:09:26;;;;;;;20.85;6.47;;;27.80;99.90;;;;;;5070527;28;20201;-68
2022/08/24 08:11:54;;;;;;;20.70;6.28;;;28.00;99.90;;;;;;5071189;28;20282;-67
2022/08/24 08:14:21;;;;;;;16.38;5.78;;;28.10;99.90;;;;;;5064626;28;20206;-66
2022/08/24 08:16:48;;;;;;;22.05;5.57;;;28.20;99.90;;;;;;5064055;28;20212;-67
2022/08/24 08:19:15;;;;;;;22.55;5.35;;;28.40;99.90;;;;;;5054738;28;20680;-66
2022/08/24 08:24:28;;;;;;;18.38;5.28;;;28.70;99.90;;;;;;5065524;28;20201;-67
2022/08/24 08:26:58;;;;;;;22.73;4.90;;;28.90;99.90;;;;;;5059432;28;20724;-67
2022/08/24 08:29:25;;;;;;;17.15;5.18;;;29.10;99.90;;;;;;5057596;28;20201;-67
2022/08/24 08:31:52;;;;;;;21.55;5.80;;;29.10;99.90;;;;;;5069570;28;20617;-66
2022/08/24 08:34:19;;;;;;;18.67;5.60;;;29.10;99.90;;;;;;5069027;28;20213;-68
2022/08/24 08:36:47;;;;;;;24.33;6.32;;;29.10;99.90;;;;;;5061647;28;20332;-67
2022/08/24 08:39:16;;;;;;;24.98;5.43;;;29.10;99.90;;;;;;5068432;28;20204;-67
2022/08/24 08:42:25;;;;;;;24.08;6.10;;;28.90;99.90;;;;;;5069684;28;20233;-67
2022/08/24 08:45:11;;;;;;;19.42;6.05;;;29.00;99.90;;;;;;5069478;28;20243;-65
2022/08/24 08:48:11;;;;;;;27.58;6.05;;;29.20;99.90;;;;;;5068640;28;20272;-65
2022/08/24 08:50:56;;;;;;;23.50;6.00;;;29.50;99.90;;;;;;5041251;28;20209;-65
2022/08/24 08:54:11;;;;;;;30.50;7.13;;;29.90;99.90;;;;;;5068213;28;20661;-66
2022/08/24 08:56:47;;;;;;;22.63;6.30;;;30.20;99.90;;;;;;5050008;28;20251;-66
2022/08/24 08:59:31;;;;;;;24.63;7.00;;;30.20;99.90;;;;;;5068897;28;20216;-66
2022/08/24 09:02:09;;;;;;;27.25;6.45;;;30.30;99.90;;;;;;5065964;28;20209;-66
2022/08/24 09:04:58;;;;;;;22.30;6.75;;;30.40;99.90;;;;;;5066201;28;20229;-67
2022/08/24 09:07:39;;;;;;;25.75;7.00;;;30.50;99.90;;;;;;5069257;28;20202;-67
2022/08/24 09:10:33;;;;;;;26.50;6.35;;;30.60;99.90;;;;;;5067172;28;20208;-68
2022/08/24 09:13:17;;;;;;;22.70;6.15;;;30.70;99.90;;;;;;5065859;28;20236;-67
2022/08/24 09:15:59;;;;;;;32.55;6.03;;;30.80;99.90;;;;;;5062304;28;20288;-67
2022/08/24 09:18:40;;;;;;;25.27;5.72;;;30.80;99.90;;;;;;5063640;28;20216;-66
2022/08/24 09:21:25;;;;;;;24.52;6.45;;;30.90;99.90;;;;;;5055798;28;20197;-67
2022/08/24 09:24:02;;;;;;;20.38;5.75;;;31.20;99.90;;;;;;5053616;28;20208;-67
2022/08/24 09:26:32;;;;;;;32.15;6.47;;;31.40;99.20;;;;;;5068731;28;20205;-66
2022/08/24 09:29:09;;;;;;;28.65;5.50;;;31.70;98.80;;;;;;5069037;28;20205;-69
2022/08/24 09:31:56;;;;;;;30.05;6.50;;;31.90;98.00;;;;;;5067416;28;20220;-68
2022/08/24 09:34:45;;;;;;;24.73;5.75;;;32.20;97.20;;;;;;5068554;28;20255;-66
2022/08/24 09:37:30;;;;;;;21.25;5.22;;;32.40;96.40;;;;;;5068945;28;20208;-66
2022/08/24 09:40:17;;;;;;;25.85;6.32;;;32.60;96.10;;;;;;5068921;28;20722;-66
2022/08/24 09:43:24;;;;;;;30.40;6.00;;;33.00;95.50;;;;;;5067899;28;20224;-66
2022/08/24 09:46:26;;;;;;;29.52;6.05;;;33.40;94.40;;;;;;5070209;28;20270;-68
2022/08/24 09:49:33;;;;;;;30.05;5.18;;;33.70;93.00;;;;;;5070668;28;20661;-70
2022/08/24 09:52:30;;;;;;;23.92;5.40;;;34.00;92.40;;;;;;5067872;28;20197;-71
2022/08/24 09:55:35;;;;;;;27.27;6.00;;;34.10;91.90;;;;;;5066138;28;20201;-67
2022/08/24 09:58:12;;;;;;;25.75;5.55;;;34.10;91.50;;;;;;5036847;28;20213;-68
2022/08/24 10:00:46;;;;;;;27.67;5.78;;;34.10;91.40;;;;;;5058934;28;20193;-67
2022/08/24 10:03:34;;;;;;;22.80;5.22;;;34.30;91.20;;;;;;5068235;28;20202;-67
2022/08/24 10:06:20;;;;;;;23.85;5.93;;;34.40;90.90;;;;;;5060729;28;20213;-67
2022/08/24 10:09:10;;;;;;;20.92;6.15;;;34.70;90.40;;;;;;5063530;28;20201;-68
2022/08/24 10:11:46;;;;;;;23.42;6.55;;;35.10;89.60;;;;;;5066138;28;20201;-71
2022/08/24 10:14:24;;;;;;;25.33;5.85;;;35.30;87.80;;;;;;5064474;28;20223;-67
2022/08/24 10:17:00;;;;;;;27.63;6.97;;;35.60;86.70;;;;;;5067341;28;20601;-67
2022/08/24 10:19:44;;;;;;;26.15;6.85;;;36.00;85.80;;;;;;5068715;28;20193;-67
2022/08/24 10:22:20;;;;;;;24.70;6.28;;;36.30;83.50;;;;;;5066132;28;20476;-67
2022/08/24 10:25:05;;;;;;;25.20;6.43;;;36.60;82.50;;;;;;5059699;28;20208;-67
2022/08/24 10:27:45;;;;;;;25.20;6.65;;;36.90;80.80;;;;;;5057624;28;20205;-66
2022/08/24 10:30:33;;;;;;;25.75;5.57;;;37.10;78.90;;;;;;5059466;28;20319;-66
2022/08/24 10:33:11;;;;;;;22.50;5.43;;;37.50;77.70;;;;;;5059489;28;20272;-65
2022/08/24 10:35:55;;;;;;;24.75;5.72;;;37.80;75.70;;;;;;5062332;28;20286;-66
2022/08/24 10:41:55;;;;;;;23.90;6.03;;;38.40;72.80;;;;;;5058621;28;20272;-65
2022/08/24 10:44:43;;;;;;;20.35;5.82;;;38.60;71.40;;;;;;5037205;28;20212;-65
2022/08/24 10:47:19;;;;;;;19.20;5.78;;;38.90;71.00;;;;;;5063171;28;20208;-68
2022/08/24 10:50:22;;;;;;;26.48;5.32;;;39.10;70.00;;;;;;5063060;28;20596;-69
2022/08/24 10:53:08;;;;;;;16.67;4.88;;;39.10;69.40;;;;;;5028113;28;20259;-69
2022/08/24 10:55:37;;;;;;;21.38;4.80;;;39.20;69.10;;;;;;5060443;28;20215;-69
2022/08/24 10:58:33;;;;;;;20.00;5.40;;;39.40;68.40;;;;;;5071467;28;20213;-68
2022/08/24 11:01:16;;;;;;;19.25;5.38;;;39.60;67.60;;;;;;5060500;28;20198;-68
2022/08/24 11:03:52;;;;;;;15.80;5.70;;;39.50;66.60;;;;;;5064779;28;20213;-68
2022/08/24 11:06:20;;;;;;;22.88;5.43;;;39.50;66.40;;;;;;5069253;28;20213;-69
2022/08/24 11:08:57;;;;;;;20.67;5.55;;;39.50;66.30;;;;;;5068545;28;20205;-69
2022/08/24 11:11:31;;;;;;;27.95;5.28;;;39.60;65.40;;;;;;5069674;28;20915;-68
2022/08/24 11:14:00;;;;;;;19.55;5.15;;;39.60;64.90;;;;;;5071389;28;20208;-68
2022/08/24 11:16:31;;;;;;;16.75;6.03;;;39.40;65.10;;;;;;5069724;28;20209;-69
2022/08/24 11:19:00;;;;;;;22.00;5.85;;;39.20;65.20;;;;;;5069020;28;20212;-67
2022/08/24 11:21:47;;;;;;;20.58;5.60;;;38.80;65.50;;;;;;5071951;28;20428;-68
2022/08/24 11:24:30;;;;;;;23.38;5.70;;;38.60;66.20;;;;;;5067259;28;20217;-67
2022/08/24 11:27:05;;;;;;;23.00;6.30;;;38.30;67.00;;;;;;5070050;28;20201;-67
2022/08/24 11:30:00;;;;;;;22.25;6.10;;;38.00;67.30;;;;;;5071491;28;20211;-67
2022/08/24 11:32:32;;;;;;;17.33;5.07;;;37.70;67.40;;;;;;5070003;28;20201;-66
2022/08/24 11:35:02;;;;;;;16.98;5.45;;;37.40;67.70;;;;;;5063836;28;20225;-65
2022/08/24 11:37:32;;;;;;;20.50;5.30;;;37.20;68.30;;;;;;5067483;28;20225;-65
2022/08/24 11:40:00;;;;;;;29.83;5.97;;;37.20;69.20;;;;;;5070637;28;20243;-67
2022/08/24 11:42:47;;;;;;;24.55;6.20;;;37.40;69.20;;;;;;5070071;28;20209;-66
2022/08/24 11:45:19;;;;;;;28.95;6.00;;;37.40;67.80;;;;;;5069943;28;20209;-69
2022/08/24 11:47:58;;;;;;;24.73;5.88;;;37.20;67.70;;;;;;5069462;28;20201;-65
2022/08/24 11:50:32;;;;;;;22.17;5.63;;;37.10;68.30;;;;;;5069451;28;20566;-65
2022/08/24 11:53:08;;;;;;;32.28;6.82;;;36.90;68.10;;;;;;5069596;28;20219;-66
2022/08/24 11:55:44;;;;;;;31.27;6.65;;;36.70;67.90;;;;;;5062074;28;20193;-65
2022/08/24 11:58:17;;;;;;;31.45;6.85;;;36.50;67.80;;;;;;5065336;28;20562;-66
2022/08/24 12:00:52;;;;;;;24.95;6.38;;;36.50;67.70;;;;;;5069325;28;20205;-66
2022/08/24 12:03:46;;;;;;;26.20;5.65;;;36.50;68.60;;;;;;5070526;28;20633;-65
2022/08/24 12:06:28;;;;;;;28.88;5.88;;;36.60;68.50;;;;;;5069197;28;20205;-65
2022/08/24 12:08:59;;;;;;;24.27;6.90;;;36.60;68.20;;;;;;5069513;28;20571;-65
2022/08/24 12:11:37;;;;;;;31.55;6.32;;;36.60;67.80;;;;;;5071709;28;20206;-66
2022/08/24 12:14:09;;;;;;;25.40;6.10;;;36.50;67.80;;;;;;5067576;28;20216;-68
2022/08/24 12:16:41;;;;;;;31.55;7.05;;;36.40;67.70;;;;;;5070621;28;20201;-64
2022/08/24 12:19:13;;;;;;;30.85;6.45;;;36.40;67.90;;;;;;5069089;28;20563;-66
2022/08/24 12:21:45;;;;;;;23.33;6.25;;;36.60;67.80;;;;;;5070768;28;20674;-64
2022/08/24 12:24:16;;;;;;;30.98;6.95;;;36.70;67.20;;;;;;5070453;28;20205;-66
2022/08/24 12:26:47;;;;;;;35.50;6.78;;;36.80;66.80;;;;;;5069940;28;20201;-65
2022/08/24 12:29:22;;;;;;;23.10;5.80;;;37.00;66.70;;;;;;5068153;28;20202;-68
2022/08/24 12:31:54;;;;;;;28.42;5.97;;;37.10;66.50;;;;;;5071609;28;20203;-66
2022/08/24 12:34:26;;;;;;;40.38;7.40;;;37.20;66.40;;;;;;5064749;28;20278;-67
2022/08/24 12:37:01;;;;;;;33.03;6.78;;;37.20;66.10;;;;;;5061819;28;20233;-67
2022/08/24 12:39:34;;;;;;;25.45;5.65;;;37.00;65.80;;;;;;5065382;28;20562;-67
2022/08/24 12:42:07;;;;;;;34.42;6.63;;;36.80;65.80;;;;;;5064224;28;20202;-67
2022/08/24 12:44:43;;;;;;;38.15;6.18;;;36.50;66.20;;;;;;5062021;28;20592;-67
2022/08/24 12:47:10;;;;;;;23.05;5.70;;;36.30;66.70;;;;;;5063304;28;20207;-67
2022/08/24 12:49:46;;;;;;;28.27;6.60;;;36.20;67.10;;;;;;5070617;28;20292;-68
2022/08/24 12:52:34;;;;;;;27.88;5.75;;;36.20;67.50;;;;;;5066491;28;20557;-67
2022/08/24 12:55:31;;;;;;;29.23;5.22;;;36.30;67.50;;;;;;5064767;28;20213;-67
2022/08/24 12:58:05;;;;;;;32.92;7.20;;;36.40;67.30;;;;;;5062021;28;20213;-66
2022/08/24 13:00:37;;;;;;;31.50;6.55;;;36.50;66.90;;;;;;5069003;28;20209;-65
2022/08/24 13:03:07;;;;;;;35.80;6.82;;;36.60;66.80;;;;;;5067063;28;20392;-66
2022/08/24 13:05:41;;;;;;;35.80;6.75;;;36.70;66.70;;;;;;5069174;28;20201;-65
2022/08/24 13:08:15;;;;;;;33.03;7.10;;;36.60;66.10;;;;;;5070056;28;20212;-67
2022/08/24 13:10:51;;;;;;;35.83;6.55;;;36.30;66.00;;;;;;5066524;28;20232;-68
2022/08/24 13:13:39;;;;;;;35.05;6.38;;;36.10;66.70;;;;;;5066616;28;20208;-67
2022/08/24 13:16:07;;;;;;;35.28;7.20;;;36.00;67.30;;;;;;5062909;28;20198;-68